Strona główna
METAR-TAF:

METAR-TAF

Lotnisko :

Bahía Blanca, Argentyna

Szerokość geograficzna: 38-44S, Długość geograficzna: 062-10W, wysokość: 75 m

Aktualna obserwacja pogody

Raport powstał 14 godziny i 15 minut temu, godzina 08:20 UTC
Wiatr 11 kt od północ
Temperatura 19°C
Wilgotność 56%
Ciśnienie 1000 hPa
Widzialność 10 km lub więcej
Rozproszone chmury na wysokości 2000 ft
Mało chmury na wysokości 4000 ft, Cumulonimbus.
burza, słaby deszcz

METAR: SAZB 220820Z 36011KT 9999 -TSRA SCT020 FEW040CB 19/10 Q1000

czas: 19:35 (22:35 UTC)


TAF: brakujący

Obserwacja i prognoza pogody dla ponad 4000 lotnisk (raport METAR i TAF).

Dostępne stacje oznaczono żółtymi i czerwonymi punktami na mapie.

Najedź kursorem aby zobaczyć nazwę stacji.

Kliknij aby zobaczyć obserwacje i prognozy pogody.

Aby zmienić mapę: kliknij na zielony przycisk z czarnym krzyżykiem, aby powiększyć; na zielony przycisk z myślnikiem, aby pomniejszyć; na zielone strzałki, aby przejść do map sąsiednich.


METAR-TAF: